Icara, Brazil
Current Conditions -  °F | °C
As of 3:00 PM on Thursday 23 Oct 2014 (Local Time) from SBCM Reporting Station
Clear Clear  
Wind Chill: 86°   Ceiling: Unl
Heat Index: 86°   Visibility: 6mi
Dew Point: 57°   Wind: 6mph
Humidity: 37%   Direction: 240°WSW
Pressure: 29.97"   Gusts: NA
Location:  28.71°S, 49.3°W
Report Text: SBCM 231700Z 24005KT CAVOK 30/14 Q1015
Loading
Personal Weather Stations






























Interactive Weather Map
Tropical Storm Tracking
New forecast layout! Learn more

10-Day Weather Forecast

Advertisements
Track Severe Weather on mobile